CEB143 RPVE-RPLL
Flight info
| Callsign | CEB143 |
|---|---|
| Flight time | 0h 38m |
| Altitude | 26000 |
| Route | MINOR8A MINOR B473 LAIYA LAIYA7R |
| Aircraft | A320/M-SDE3FGHIRWY/LB1 |
Departure
| Time | 2026-05-08 14:08 |
|---|---|
| Airport | Godofredo P. Ramos Airport (RPVE) |
Arrival
| Time | 2026-05-08 14:46 |
|---|---|
| Airport | Ninoy Aquino International Airport (RPLL) |
| Time | Latitude | Longitude | Altitude | Speed | Heading |
|---|---|---|---|---|---|
| 2026-05-08 13:42 | 11.92665 | 121.96400 | 59 ft | 0 kts | 153° |
| 2026-05-08 13:58 | 11.92670 | 121.96397 | 60 ft | 2 kts | 153° |
| 2026-05-08 13:58 | 11.92684 | 121.96390 | 60 ft | 2 kts | 153° |
| 2026-05-08 13:58 | 11.92698 | 121.96384 | 60 ft | 2 kts | 176° |
| 2026-05-08 13:58 | 11.92713 | 121.96385 | 60 ft | 2 kts | 200° |
| 2026-05-08 13:59 | 11.92726 | 121.96393 | 60 ft | 2 kts | 227° |
| 2026-05-08 13:59 | 11.92731 | 121.96400 | 60 ft | 1 kts | 242° |
| 2026-05-08 13:59 | 11.92734 | 121.96406 | 60 ft | 0 kts | 242° |
| 2026-05-08 14:02 | 11.92732 | 121.96403 | 60 ft | 1 kts | 242° |
| 2026-05-08 14:02 | 11.92722 | 121.96384 | 60 ft | 4 kts | 242° |
| 2026-05-08 14:03 | 11.92704 | 121.96349 | 59 ft | 7 kts | 242° |
| 2026-05-08 14:03 | 11.92676 | 121.96295 | 58 ft | 10 kts | 242° |
| 2026-05-08 14:03 | 11.92644 | 121.96231 | 56 ft | 10 kts | 243° |
| 2026-05-08 14:03 | 11.92658 | 121.96188 | 56 ft | 7 kts | 323° |
| 2026-05-08 14:04 | 11.92708 | 121.96161 | 56 ft | 8 kts | 333° |
| 2026-05-08 14:04 | 11.92766 | 121.96131 | 56 ft | 9 kts | 332° |
| 2026-05-08 14:04 | 11.92794 | 121.96072 | 55 ft | 11 kts | 247° |
| 2026-05-08 14:04 | 11.92751 | 121.95988 | 51 ft | 15 kts | 242° |
| 2026-05-08 14:05 | 11.92698 | 121.95882 | 47 ft | 18 kts | 243° |
| 2026-05-08 14:05 | 11.92633 | 121.95753 | 41 ft | 21 kts | 243° |
| 2026-05-08 14:05 | 11.92561 | 121.95611 | 34 ft | 22 kts | 243° |
| 2026-05-08 14:05 | 11.92484 | 121.95458 | 26 ft | 23 kts | 243° |
| 2026-05-08 14:06 | 11.92407 | 121.95302 | 21 ft | 25 kts | 243° |
| 2026-05-08 14:06 | 11.92337 | 121.95164 | 19 ft | 18 kts | 243° |
| 2026-05-08 14:06 | 11.92288 | 121.95076 | 19 ft | 12 kts | 226° |
| 2026-05-08 14:06 | 11.92244 | 121.95022 | 19 ft | 7 kts | 274° |
| 2026-05-08 14:07 | 11.92272 | 121.95028 | 19 ft | 4 kts | 69° |
| 2026-05-08 14:07 | 11.92285 | 121.95057 | 19 ft | 3 kts | 61° |
| 2026-05-08 14:07 | 11.92288 | 121.95061 | 19 ft | 0 kts | 61° |
| 2026-05-08 14:07 | 11.92301 | 121.95087 | 19 ft | 26 kts | 63° |
| 2026-05-08 14:08 | 11.92529 | 121.95540 | 30 ft | 113 kts | 63° |
| 2026-05-08 14:08 | 11.92993 | 121.96458 | 225 ft | 166 kts | 63° |
| 2026-05-08 14:08 | 11.93521 | 121.97504 | 1037 ft | 171 kts | 64° |
| 2026-05-08 14:08 | 11.94036 | 121.98553 | 2061 ft | 165 kts | 63° |
| 2026-05-08 14:09 | 11.94558 | 121.99596 | 2637 ft | 171 kts | 63° |
| 2026-05-08 14:09 | 11.95124 | 122.00723 | 3037 ft | 187 kts | 63° |
| 2026-05-08 14:09 | 11.95755 | 122.01957 | 3351 ft | 210 kts | 58° |
| 2026-05-08 14:09 | 11.96767 | 122.03072 | 3937 ft | 222 kts | 38° |
| 2026-05-08 14:10 | 11.98167 | 122.03878 | 4441 ft | 239 kts | 30° |
| 2026-05-08 14:10 | 11.99725 | 122.04664 | 4903 ft | 256 kts | 29° |
| 2026-05-08 14:10 | 12.01344 | 122.05472 | 5556 ft | 264 kts | 29° |
| 2026-05-08 14:10 | 12.03009 | 122.06305 | 6313 ft | 267 kts | 29° |
| 2026-05-08 14:11 | 12.04679 | 122.07146 | 7044 ft | 270 kts | 29° |
| 2026-05-08 14:11 | 12.06355 | 122.07992 | 7777 ft | 272 kts | 29° |
| 2026-05-08 14:11 | 12.08055 | 122.08852 | 8494 ft | 275 kts | 29° |
| 2026-05-08 14:11 | 12.09797 | 122.09733 | 9178 ft | 278 kts | 29° |
| 2026-05-08 14:12 | 12.11520 | 122.10603 | 9838 ft | 281 kts | 29° |
| 2026-05-08 14:12 | 12.13280 | 122.11495 | 10438 ft | 286 kts | 29° |
| 2026-05-08 14:12 | 12.15109 | 122.12424 | 10744 ft | 302 kts | 28° |
| 2026-05-08 14:12 | 12.17070 | 122.13418 | 11022 ft | 318 kts | 28° |
| 2026-05-08 14:13 | 12.19103 | 122.14447 | 11280 ft | 333 kts | 28° |
| 2026-05-08 14:13 | 12.21196 | 122.15507 | 11638 ft | 343 kts | 28° |
| 2026-05-08 14:13 | 12.23346 | 122.16594 | 12187 ft | 346 kts | 28° |
| 2026-05-08 14:13 | 12.25510 | 122.17689 | 12749 ft | 348 kts | 28° |
| 2026-05-08 14:14 | 12.27699 | 122.18797 | 13316 ft | 350 kts | 28° |
| 2026-05-08 14:14 | 12.29887 | 122.19904 | 13830 ft | 352 kts | 28° |
| 2026-05-08 14:14 | 12.32087 | 122.21019 | 14338 ft | 355 kts | 28° |
| 2026-05-08 14:14 | 12.34370 | 122.22020 | 14772 ft | 362 kts | 17° |
| 2026-05-08 14:15 | 12.36932 | 122.22246 | 15199 ft | 371 kts | 357° |
| 2026-05-08 14:15 | 12.39454 | 122.21561 | 15642 ft | 381 kts | 338° |
| 2026-05-08 14:15 | 12.41729 | 122.20142 | 16078 ft | 388 kts | 329° |
| 2026-05-08 14:15 | 12.43969 | 122.18575 | 16487 ft | 391 kts | 328° |
| 2026-05-08 14:16 | 12.46244 | 122.16978 | 16884 ft | 395 kts | 328° |
| 2026-05-08 14:16 | 12.48504 | 122.15395 | 17248 ft | 399 kts | 329° |
| 2026-05-08 14:16 | 12.50821 | 122.13777 | 17623 ft | 402 kts | 328° |
| 2026-05-08 14:16 | 12.53130 | 122.12168 | 18027 ft | 404 kts | 328° |
| 2026-05-08 14:17 | 12.55475 | 122.10536 | 18448 ft | 405 kts | 328° |
| 2026-05-08 14:17 | 12.57791 | 122.08925 | 18846 ft | 407 kts | 328° |
| 2026-05-08 14:17 | 12.60163 | 122.07276 | 19233 ft | 409 kts | 328° |
| 2026-05-08 14:17 | 12.62497 | 122.05653 | 19614 ft | 410 kts | 328° |
| 2026-05-08 14:18 | 12.64885 | 122.03991 | 20008 ft | 412 kts | 328° |
| 2026-05-08 14:18 | 12.67238 | 122.02354 | 20380 ft | 413 kts | 328° |
| 2026-05-08 14:18 | 12.69619 | 122.00697 | 20747 ft | 414 kts | 328° |
| 2026-05-08 14:18 | 12.72026 | 121.99021 | 20978 ft | 410 kts | 327° |
| 2026-05-08 14:19 | 12.74372 | 121.97386 | 20698 ft | 406 kts | 327° |
| 2026-05-08 14:19 | 12.76699 | 121.95763 | 20177 ft | 406 kts | 328° |
| 2026-05-08 14:19 | 12.79035 | 121.94134 | 19915 ft | 405 kts | 328° |
| 2026-05-08 14:19 | 12.81392 | 121.92491 | 19891 ft | 406 kts | 328° |
| 2026-05-08 14:20 | 12.83728 | 121.90863 | 19890 ft | 406 kts | 328° |
| 2026-05-08 14:20 | 12.86064 | 121.89236 | 19891 ft | 406 kts | 328° |
| 2026-05-08 14:20 | 12.88414 | 121.87598 | 19892 ft | 406 kts | 328° |
| 2026-05-08 14:20 | 12.90740 | 121.85975 | 19892 ft | 407 kts | 328° |
| 2026-05-08 14:21 | 12.93095 | 121.84332 | 19891 ft | 407 kts | 328° |
| 2026-05-08 14:21 | 12.95445 | 121.82693 | 19892 ft | 407 kts | 328° |
| 2026-05-08 14:21 | 12.97794 | 121.81053 | 19894 ft | 407 kts | 328° |
| 2026-05-08 14:21 | 13.00146 | 121.79413 | 19895 ft | 407 kts | 328° |
| 2026-05-08 14:22 | 13.02468 | 121.77791 | 19899 ft | 406 kts | 328° |
| 2026-05-08 14:22 | 13.04830 | 121.76142 | 19903 ft | 406 kts | 328° |
| 2026-05-08 14:22 | 13.07159 | 121.74515 | 19902 ft | 406 kts | 328° |
| 2026-05-08 14:22 | 13.09484 | 121.72890 | 19903 ft | 406 kts | 328° |
| 2026-05-08 14:23 | 13.11838 | 121.71246 | 19904 ft | 406 kts | 328° |
| 2026-05-08 14:23 | 13.14179 | 121.69608 | 19904 ft | 406 kts | 328° |
| 2026-05-08 14:23 | 13.16506 | 121.67980 | 19912 ft | 406 kts | 328° |
| 2026-05-08 14:23 | 13.18873 | 121.66324 | 19915 ft | 406 kts | 328° |
| 2026-05-08 14:24 | 13.21193 | 121.64701 | 19912 ft | 407 kts | 328° |
| 2026-05-08 14:24 | 13.23535 | 121.63063 | 19913 ft | 406 kts | 328° |
| 2026-05-08 14:24 | 13.25886 | 121.61417 | 19912 ft | 406 kts | 328° |
| 2026-05-08 14:24 | 13.28219 | 121.59784 | 19915 ft | 406 kts | 328° |
| 2026-05-08 14:25 | 13.30580 | 121.58131 | 19918 ft | 406 kts | 328° |
| 2026-05-08 14:25 | 13.32893 | 121.56509 | 19891 ft | 404 kts | 328° |
| 2026-05-08 14:25 | 13.35206 | 121.54887 | 19563 ft | 399 kts | 328° |
| 2026-05-08 14:25 | 13.37511 | 121.53262 | 18903 ft | 398 kts | 328° |
| 2026-05-08 14:26 | 13.39768 | 121.51664 | 18247 ft | 397 kts | 328° |
| 2026-05-08 14:26 | 13.42044 | 121.50050 | 17634 ft | 394 kts | 328° |
| 2026-05-08 14:26 | 13.44271 | 121.48463 | 17052 ft | 391 kts | 328° |
| 2026-05-08 14:26 | 13.46518 | 121.46858 | 16495 ft | 388 kts | 328° |
| 2026-05-08 14:27 | 13.48725 | 121.45281 | 15957 ft | 385 kts | 328° |
| 2026-05-08 14:27 | 13.50917 | 121.43711 | 15433 ft | 381 kts | 328° |
| 2026-05-08 14:27 | 13.53078 | 121.42165 | 14920 ft | 378 kts | 327° |
| 2026-05-08 14:27 | 13.55220 | 121.40636 | 14391 ft | 374 kts | 328° |
| 2026-05-08 14:28 | 13.57360 | 121.39110 | 13867 ft | 371 kts | 328° |
| 2026-05-08 14:28 | 13.59472 | 121.37604 | 13308 ft | 368 kts | 328° |
| 2026-05-08 14:28 | 13.61561 | 121.36110 | 12764 ft | 365 kts | 328° |
| 2026-05-08 14:28 | 13.63620 | 121.34633 | 12231 ft | 361 kts | 327° |
| 2026-05-08 14:29 | 13.65686 | 121.33146 | 11676 ft | 358 kts | 327° |
| 2026-05-08 14:29 | 13.67720 | 121.31676 | 11110 ft | 355 kts | 327° |
| 2026-05-08 14:29 | 13.69719 | 121.30224 | 10566 ft | 352 kts | 327° |
| 2026-05-08 14:29 | 13.71691 | 121.28786 | 10233 ft | 340 kts | 327° |
| 2026-05-08 14:30 | 13.73585 | 121.27396 | 10032 ft | 327 kts | 327° |
| 2026-05-08 14:30 | 13.75394 | 121.26060 | 9974 ft | 309 kts | 327° |
| 2026-05-08 14:30 | 13.77092 | 121.24799 | 9969 ft | 299 kts | 327° |
| 2026-05-08 14:30 | 13.78787 | 121.23538 | 9976 ft | 298 kts | 327° |
| 2026-05-08 14:31 | 13.80467 | 121.22292 | 9974 ft | 298 kts | 327° |
| 2026-05-08 14:31 | 13.82149 | 121.21043 | 9982 ft | 298 kts | 327° |
| 2026-05-08 14:31 | 13.83840 | 121.19787 | 9980 ft | 298 kts | 327° |
| 2026-05-08 14:32 | 13.87217 | 121.17268 | 9982 ft | 298 kts | 327° |
| 2026-05-08 14:32 | 13.88911 | 121.15998 | 9979 ft | 298 kts | 327° |
| 2026-05-08 14:32 | 13.90604 | 121.14730 | 9980 ft | 298 kts | 327° |
| 2026-05-08 14:32 | 13.92276 | 121.13477 | 9983 ft | 298 kts | 327° |
| 2026-05-08 14:33 | 13.93965 | 121.12211 | 9986 ft | 299 kts | 327° |
| 2026-05-08 14:33 | 13.95658 | 121.10941 | 9979 ft | 298 kts | 327° |
| 2026-05-08 14:33 | 13.97334 | 121.09686 | 9978 ft | 298 kts | 327° |
| 2026-05-08 14:33 | 13.99037 | 121.08412 | 9971 ft | 298 kts | 327° |
| 2026-05-08 14:34 | 14.00714 | 121.07157 | 9969 ft | 298 kts | 327° |
| 2026-05-08 14:34 | 14.02390 | 121.05907 | 9965 ft | 298 kts | 327° |
| 2026-05-08 14:34 | 14.04064 | 121.04655 | 9957 ft | 298 kts | 327° |
| 2026-05-08 14:34 | 14.05756 | 121.03387 | 9958 ft | 298 kts | 327° |
| 2026-05-08 14:35 | 14.07410 | 121.02140 | 9775 ft | 294 kts | 327° |
| 2026-05-08 14:35 | 14.09073 | 121.00878 | 9308 ft | 294 kts | 327° |
| 2026-05-08 14:35 | 14.10724 | 120.99628 | 8875 ft | 293 kts | 327° |
| 2026-05-08 14:35 | 14.12361 | 120.98392 | 8482 ft | 291 kts | 327° |
| 2026-05-08 14:36 | 14.13982 | 120.97173 | 8083 ft | 289 kts | 327° |
| 2026-05-08 14:36 | 14.15623 | 120.95943 | 7685 ft | 286 kts | 327° |
| 2026-05-08 14:36 | 14.17230 | 120.94746 | 7300 ft | 284 kts | 327° |
| 2026-05-08 14:36 | 14.18830 | 120.93561 | 6903 ft | 283 kts | 327° |
| 2026-05-08 14:37 | 14.20422 | 120.92387 | 6513 ft | 281 kts | 327° |
| 2026-05-08 14:37 | 14.22016 | 120.91214 | 6124 ft | 279 kts | 327° |
| 2026-05-08 14:37 | 14.23595 | 120.90054 | 5720 ft | 277 kts | 327° |
| 2026-05-08 14:37 | 14.25169 | 120.88898 | 5333 ft | 275 kts | 327° |
| 2026-05-08 14:38 | 14.26711 | 120.87768 | 5141 ft | 265 kts | 327° |
| 2026-05-08 14:38 | 14.28178 | 120.86689 | 4967 ft | 256 kts | 327° |
| 2026-05-08 14:38 | 14.29606 | 120.85635 | 4800 ft | 247 kts | 327° |
| 2026-05-08 14:38 | 14.30981 | 120.84615 | 4611 ft | 240 kts | 327° |
| 2026-05-08 14:39 | 14.32320 | 120.83617 | 4435 ft | 231 kts | 327° |
| 2026-05-08 14:39 | 14.33611 | 120.82654 | 4257 ft | 223 kts | 327° |
| 2026-05-08 14:39 | 14.34852 | 120.81726 | 4065 ft | 217 kts | 327° |
| 2026-05-08 14:39 | 14.36071 | 120.80849 | 3895 ft | 207 kts | 336° |
| 2026-05-08 14:40 | 14.37411 | 120.80543 | 3655 ft | 195 kts | 13° |
| 2026-05-08 14:40 | 14.38658 | 120.80978 | 3408 ft | 185 kts | 38° |
| 2026-05-08 14:40 | 14.39546 | 120.81854 | 3239 ft | 172 kts | 53° |
| 2026-05-08 14:40 | 14.40198 | 120.82818 | 3006 ft | 158 kts | 59° |
| 2026-05-08 14:41 | 14.40755 | 120.83756 | 2782 ft | 145 kts | 61° |
| 2026-05-08 14:41 | 14.41252 | 120.84631 | 2524 ft | 138 kts | 61° |
| 2026-05-08 14:41 | 14.41735 | 120.85493 | 2496 ft | 139 kts | 62° |
| 2026-05-08 14:41 | 14.42221 | 120.86369 | 2485 ft | 140 kts | 62° |
| 2026-05-08 14:42 | 14.42701 | 120.87234 | 2479 ft | 140 kts | 62° |
| 2026-05-08 14:42 | 14.43189 | 120.88115 | 2474 ft | 140 kts | 62° |
| 2026-05-08 14:42 | 14.43674 | 120.88992 | 2373 ft | 140 kts | 62° |
| 2026-05-08 14:42 | 14.44155 | 120.89862 | 2202 ft | 139 kts | 62° |
| 2026-05-08 14:43 | 14.44633 | 120.90723 | 2021 ft | 139 kts | 62° |
| 2026-05-08 14:43 | 14.45118 | 120.91591 | 1844 ft | 138 kts | 61° |
| 2026-05-08 14:43 | 14.45589 | 120.92445 | 1664 ft | 138 kts | 62° |
| 2026-05-08 14:43 | 14.46072 | 120.93305 | 1468 ft | 137 kts | 62° |
| 2026-05-08 14:44 | 14.46550 | 120.94160 | 1279 ft | 137 kts | 63° |
| 2026-05-08 14:44 | 14.47017 | 120.95023 | 1085 ft | 136 kts | 64° |
| 2026-05-08 14:44 | 14.47479 | 120.95877 | 930 ft | 136 kts | 61° |
| 2026-05-08 14:44 | 14.47965 | 120.96716 | 753 ft | 136 kts | 63° |
| 2026-05-08 14:45 | 14.48428 | 120.97562 | 553 ft | 135 kts | 63° |
| 2026-05-08 14:45 | 14.48901 | 120.98406 | 401 ft | 135 kts | 64° |
| 2026-05-08 14:45 | 14.49368 | 120.99258 | 273 ft | 136 kts | 62° |
| 2026-05-08 14:45 | 14.49836 | 121.00106 | 124 ft | 136 kts | 63° |
| 2026-05-08 14:46 | 14.50285 | 121.00914 | 82 ft | 115 kts | 60° |
| 2026-05-08 14:46 | 14.50594 | 121.01472 | 82 ft | 65 kts | 61° |
| 2026-05-08 14:46 | 14.50772 | 121.01722 | 82 ft | 20 kts | 39° |
| 2026-05-08 14:46 | 14.50839 | 121.01775 | 82 ft | 10 kts | 37° |
| 2026-05-08 14:47 | 14.50902 | 121.01775 | 82 ft | 10 kts | 316° |
| 2026-05-08 14:47 | 14.50955 | 121.01718 | 82 ft | 11 kts | 314° |
| 2026-05-08 14:47 | 14.51016 | 121.01657 | 82 ft | 12 kts | 316° |
| 2026-05-08 14:47 | 14.51081 | 121.01591 | 82 ft | 13 kts | 314° |
| 2026-05-08 14:48 | 14.51151 | 121.01519 | 82 ft | 14 kts | 315° |
| 2026-05-08 14:48 | 14.51218 | 121.01450 | 82 ft | 10 kts | 315° |
| 2026-05-08 14:48 | 14.51266 | 121.01423 | 82 ft | 8 kts | 7° |
| 2026-05-08 14:48 | 14.51312 | 121.01463 | 82 ft | 9 kts | 49° |
| 2026-05-08 14:49 | 14.51357 | 121.01516 | 82 ft | 10 kts | 49° |
| 2026-05-08 14:49 | 14.51410 | 121.01575 | 82 ft | 11 kts | 42° |
| 2026-05-08 14:49 | 14.51474 | 121.01623 | 82 ft | 10 kts | 45° |
| 2026-05-08 14:49 | 14.51531 | 121.01681 | 82 ft | 12 kts | 45° |
| 2026-05-08 14:50 | 14.51594 | 121.01744 | 82 ft | 11 kts | 44° |
| 2026-05-08 14:50 | 14.51645 | 121.01783 | 82 ft | 9 kts | 15° |
| 2026-05-08 14:50 | 14.51691 | 121.01753 | 82 ft | 9 kts | 262° |
| 2026-05-08 14:50 | 14.51668 | 121.01728 | 82 ft | 3 kts | 212° |
| 2026-05-08 14:51 | 14.51658 | 121.01719 | 82 ft | 0 kts | 224° |
| 2026-05-08 14:51 | 14.51652 | 121.01714 | 82 ft | 0 kts | 223° |